sensor_id;sensor_type;location;lat;lon;timestamp;P1;durP1;ratioP1;P2;durP2;ratioP2
61397;SDS011;47267;48.130;-2.040;2024-03-23T00:55:44;5.50;;;2.80;;
61397;SDS011;47267;48.130;-2.040;2024-03-23T00:58:09;5.63;;;2.75;;
61397;SDS011;47267;48.130;-2.040;2024-03-23T01:00:35;6.63;;;3.00;;
61397;SDS011;47267;48.130;-2.040;2024-03-23T01:03:01;5.40;;;2.85;;
61397;SDS011;47267;48.130;-2.040;2024-03-23T01:05:26;4.50;;;2.38;;
61397;SDS011;47267;48.130;-2.040;2024-03-23T01:07:52;4.65;;;2.42;;
61397;SDS011;47267;48.130;-2.040;2024-03-23T01:10:18;5.35;;;2.58;;
61397;SDS011;47267;48.130;-2.040;2024-03-23T01:12:43;5.57;;;2.60;;
61397;SDS011;47267;48.130;-2.040;2024-03-23T01:15:09;4.78;;;2.10;;
61397;SDS011;47267;48.130;-2.040;2024-03-23T01:17:35;4.50;;;2.35;;
61397;SDS011;47267;48.130;-2.040;2024-03-23T01:20:01;4.82;;;2.47;;
61397;SDS011;47267;48.130;-2.040;2024-03-23T01:22:27;4.78;;;2.35;;
61397;SDS011;47267;48.130;-2.040;2024-03-23T01:24:52;6.15;;;2.97;;
61397;SDS011;47267;48.130;-2.040;2024-03-23T01:27:18;5.32;;;2.55;;
61397;SDS011;47267;48.130;-2.040;2024-03-23T01:29:43;4.53;;;2.10;;
61397;SDS011;47267;48.130;-2.040;2024-03-23T01:32:09;5.15;;;2.45;;
61397;SDS011;47267;48.130;-2.040;2024-03-23T01:34:35;4.35;;;2.47;;
61397;SDS011;47267;48.130;-2.040;2024-03-23T01:37:01;5.32;;;2.72;;
61397;SDS011;47267;48.130;-2.040;2024-03-23T01:39:27;4.28;;;2.33;;
61397;SDS011;47267;48.130;-2.040;2024-03-23T01:41:52;5.03;;;2.15;;
61397;SDS011;47267;48.130;-2.040;2024-03-23T01:44:18;4.57;;;2.33;;
61397;SDS011;47267;48.130;-2.040;2024-03-23T01:46:44;3.88;;;2.17;;
61397;SDS011;47267;48.130;-2.040;2024-03-23T01:49:10;3.83;;;2.10;;
61397;SDS011;47267;48.130;-2.040;2024-03-23T01:51:36;4.97;;;2.00;;
61397;SDS011;47267;48.130;-2.040;2024-03-23T01:54:03;5.28;;;2.33;;
61397;SDS011;47267;48.130;-2.040;2024-03-23T01:56:32;5.18;;;2.13;;
61397;SDS011;47267;48.130;-2.040;2024-03-23T01:59:00;5.47;;;2.47;;
61397;SDS011;47267;48.130;-2.040;2024-03-23T02:01:26;5.07;;;2.03;;
61397;SDS011;47267;48.130;-2.040;2024-03-23T02:03:52;5.18;;;2.33;;
61397;SDS011;47267;48.130;-2.040;2024-03-23T02:06:18;5.43;;;2.53;;
61397;SDS011;47267;48.130;-2.040;2024-03-23T02:08:44;3.78;;;2.03;;
61397;SDS011;47267;48.130;-2.040;2024-03-23T02:11:10;4.10;;;1.95;;
61397;SDS011;47267;48.130;-2.040;2024-03-23T02:13:35;4.88;;;2.22;;
61397;SDS011;47267;48.130;-2.040;2024-03-23T02:16:01;6.65;;;2.22;;
61397;SDS011;47267;48.130;-2.040;2024-03-23T02:18:27;3.47;;;2.00;;
61397;SDS011;47267;48.130;-2.040;2024-03-23T02:20:52;3.95;;;1.75;;
61397;SDS011;47267;48.130;-2.040;2024-03-23T02:23:18;3.75;;;2.00;;
61397;SDS011;47267;48.130;-2.040;2024-03-23T02:25:44;5.30;;;1.90;;
61397;SDS011;47267;48.130;-2.040;2024-03-23T02:28:10;5.15;;;1.90;;
61397;SDS011;47267;48.130;-2.040;2024-03-23T02:30:36;4.50;;;2.00;;
61397;SDS011;47267;48.130;-2.040;2024-03-23T02:33:02;3.67;;;1.70;;
61397;SDS011;47267;48.130;-2.040;2024-03-23T02:35:28;4.65;;;1.73;;
61397;SDS011;47267;48.130;-2.040;2024-03-23T02:37:54;4.93;;;1.95;;
61397;SDS011;47267;48.130;-2.040;2024-03-23T02:40:22;3.10;;;1.60;;
61397;SDS011;47267;48.130;-2.040;2024-03-23T02:42:48;5.50;;;2.08;;
61397;SDS011;47267;48.130;-2.040;2024-03-23T02:45:14;3.75;;;1.60;;
61397;SDS011;47267;48.130;-2.040;2024-03-23T02:47:40;4.93;;;1.88;;
61397;SDS011;47267;48.130;-2.040;2024-03-23T02:50:06;4.38;;;2.00;;
61397;SDS011;47267;48.130;-2.040;2024-03-23T02:52:32;4.40;;;2.03;;
61397;SDS011;47267;48.130;-2.040;2024-03-23T02:54:58;3.83;;;1.88;;
61397;SDS011;47267;48.130;-2.040;2024-03-23T02:57:23;6.03;;;1.85;;
61397;SDS011;47267;48.130;-2.040;2024-03-23T02:59:49;4.68;;;2.00;;
61397;SDS011;47267;48.130;-2.040;2024-03-23T03:02:15;6.10;;;1.65;;
61397;SDS011;47267;48.130;-2.040;2024-03-23T03:04:41;3.63;;;1.60;;
61397;SDS011;47267;48.130;-2.040;2024-03-23T03:07:07;4.45;;;1.73;;
61397;SDS011;47267;48.130;-2.040;2024-03-23T03:09:33;3.80;;;1.83;;
61397;SDS011;47267;48.130;-2.040;2024-03-23T03:12:00;4.35;;;1.45;;
61397;SDS011;47267;48.130;-2.040;2024-03-23T03:14:29;2.55;;;1.60;;
61397;SDS011;47267;48.130;-2.040;2024-03-23T03:16:54;3.15;;;1.60;;
61397;SDS011;47267;48.130;-2.040;2024-03-23T03:19:20;3.65;;;1.60;;
61397;SDS011;47267;48.130;-2.040;2024-03-23T03:21:46;2.75;;;1.48;;
61397;SDS011;47267;48.130;-2.040;2024-03-23T03:24:13;4.07;;;1.63;;
61397;SDS011;47267;48.130;-2.040;2024-03-23T03:26:38;3.05;;;1.77;;
61397;SDS011;47267;48.130;-2.040;2024-03-23T03:29:04;4.22;;;1.70;;
61397;SDS011;47267;48.130;-2.040;2024-03-23T03:31:30;3.90;;;1.73;;
61397;SDS011;47267;48.130;-2.040;2024-03-23T03:33:56;4.68;;;2.08;;
61397;SDS011;47267;48.130;-2.040;2024-03-23T03:36:21;2.92;;;1.42;;
61397;SDS011;47267;48.130;-2.040;2024-03-23T03:38:47;3.92;;;1.70;;
61397;SDS011;47267;48.130;-2.040;2024-03-23T03:41:13;3.53;;;1.65;;
61397;SDS011;47267;48.130;-2.040;2024-03-23T03:43:39;3.17;;;1.65;;
61397;SDS011;47267;48.130;-2.040;2024-03-23T03:46:04;3.40;;;1.50;;
61397;SDS011;47267;48.130;-2.040;2024-03-23T03:48:32;3.78;;;1.30;;
61397;SDS011;47267;48.130;-2.040;2024-03-23T03:50:59;5.22;;;1.60;;
61397;SDS011;47267;48.130;-2.040;2024-03-23T03:53:24;3.45;;;1.50;;
61397;SDS011;47267;48.130;-2.040;2024-03-23T03:55:50;2.88;;;1.20;;
61397;SDS011;47267;48.130;-2.040;2024-03-23T03:58:16;2.97;;;1.30;;
61397;SDS011;47267;48.130;-2.040;2024-03-23T04:00:41;3.80;;;1.42;;
61397;SDS011;47267;48.130;-2.040;2024-03-23T04:03:07;3.78;;;1.70;;
61397;SDS011;47267;48.130;-2.040;2024-03-23T04:05:33;2.95;;;1.30;;
61397;SDS011;47267;48.130;-2.040;2024-03-23T04:07:58;2.97;;;1.42;;
61397;SDS011;47267;48.130;-2.040;2024-03-23T04:10:24;3.63;;;1.50;;
61397;SDS011;47267;48.130;-2.040;2024-03-23T04:12:50;3.72;;;1.38;;
61397;SDS011;47267;48.130;-2.040;2024-03-23T04:15:15;2.22;;;1.15;;
61397;SDS011;47267;48.130;-2.040;2024-03-23T04:17:41;3.22;;;1.23;;
61397;SDS011;47267;48.130;-2.040;2024-03-23T04:20:08;2.88;;;1.30;;
61397;SDS011;47267;48.130;-2.040;2024-03-23T04:22:36;3.13;;;1.40;;
61397;SDS011;47267;48.130;-2.040;2024-03-23T04:25:05;3.45;;;1.13;;
61397;SDS011;47267;48.130;-2.040;2024-03-23T04:27:36;2.88;;;1.50;;
61397;SDS011;47267;48.130;-2.040;2024-03-23T04:30:02;3.05;;;1.52;;
61397;SDS011;47267;48.130;-2.040;2024-03-23T04:32:30;3.75;;;1.50;;
61397;SDS011;47267;48.130;-2.040;2024-03-23T04:34:56;4.25;;;1.60;;
61397;SDS011;47267;48.130;-2.040;2024-03-23T04:37:22;2.58;;;1.10;;
61397;SDS011;47267;48.130;-2.040;2024-03-23T04:39:47;3.42;;;1.95;;
61397;SDS011;47267;48.130;-2.040;2024-03-23T04:42:16;4.65;;;1.40;;
61397;SDS011;47267;48.130;-2.040;2024-03-23T04:44:42;3.55;;;1.38;;
61397;SDS011;47267;48.130;-2.040;2024-03-23T04:47:08;3.00;;;1.40;;
61397;SDS011;47267;48.130;-2.040;2024-03-23T04:49:33;2.55;;;1.20;;
61397;SDS011;47267;48.130;-2.040;2024-03-23T04:52:01;3.83;;;1.30;;
61397;SDS011;47267;48.130;-2.040;2024-03-23T04:54:30;2.40;;;1.10;;
61397;SDS011;47267;48.130;-2.040;2024-03-23T04:56:57;2.72;;;1.05;;
61397;SDS011;47267;48.130;-2.040;2024-03-23T04:59:23;3.33;;;1.40;;
61397;SDS011;47267;48.130;-2.040;2024-03-23T05:01:49;3.33;;;1.30;;
61397;SDS011;47267;48.130;-2.040;2024-03-23T05:04:14;2.85;;;1.10;;
61397;SDS011;47267;48.130;-2.040;2024-03-23T05:06:40;3.42;;;1.30;;
61397;SDS011;47267;48.130;-2.040;2024-03-23T05:09:05;3.95;;;1.20;;
61397;SDS011;47267;48.130;-2.040;2024-03-23T05:11:35;3.67;;;1.20;;
61397;SDS011;47267;48.130;-2.040;2024-03-23T05:14:00;2.33;;;1.10;;
61397;SDS011;47267;48.130;-2.040;2024-03-23T05:16:28;4.18;;;1.48;;
61397;SDS011;47267;48.130;-2.040;2024-03-23T05:18:53;2.50;;;0.98;;
61397;SDS011;47267;48.130;-2.040;2024-03-23T05:21:19;2.72;;;1.13;;
61397;SDS011;47267;48.130;-2.040;2024-03-23T05:23:45;2.67;;;1.17;;
61397;SDS011;47267;48.130;-2.040;2024-03-23T05:26:10;3.45;;;1.30;;
61397;SDS011;47267;48.130;-2.040;2024-03-23T05:28:36;3.25;;;1.40;;
61397;SDS011;47267;48.130;-2.040;2024-03-23T05:31:02;3.83;;;1.20;;
61397;SDS011;47267;48.130;-2.040;2024-03-23T05:33:27;3.00;;;1.10;;
61397;SDS011;47267;48.130;-2.040;2024-03-23T05:35:57;2.95;;;1.08;;
61397;SDS011;47267;48.130;-2.040;2024-03-23T05:38:23;2.15;;;1.17;;
61397;SDS011;47267;48.130;-2.040;2024-03-23T05:40:58;3.17;;;0.85;;
61397;SDS011;47267;48.130;-2.040;2024-03-23T05:43:25;3.22;;;1.23;;
61397;SDS011;47267;48.130;-2.040;2024-03-23T05:45:54;2.72;;;1.20;;
61397;SDS011;47267;48.130;-2.040;2024-03-23T05:48:21;2.88;;;1.10;;
61397;SDS011;47267;48.130;-2.040;2024-03-23T05:50:47;3.42;;;1.00;;
61397;SDS011;47267;48.130;-2.040;2024-03-23T05:53:14;2.92;;;1.23;;
61397;SDS011;47267;48.130;-2.040;2024-03-23T05:55:40;2.38;;;0.98;;
61397;SDS011;47267;48.130;-2.040;2024-03-23T05:58:06;1.30;;;0.70;;
61397;SDS011;47267;48.130;-2.040;2024-03-23T06:00:32;1.90;;;0.90;;
61397;SDS011;47267;48.130;-2.040;2024-03-23T06:02:57;2.08;;;0.73;;
61397;SDS011;47267;48.130;-2.040;2024-03-23T06:05:23;2.65;;;0.90;;
61397;SDS011;47267;48.130;-2.040;2024-03-23T06:07:49;2.60;;;0.90;;
61397;SDS011;47267;48.130;-2.040;2024-03-23T06:10:15;2.70;;;0.98;;
61397;SDS011;47267;48.130;-2.040;2024-03-23T06:12:41;2.00;;;0.65;;
61397;SDS011;47267;48.130;-2.040;2024-03-23T06:15:07;2.53;;;1.00;;
61397;SDS011;47267;48.130;-2.040;2024-03-23T06:17:35;2.88;;;1.05;;
61397;SDS011;47267;48.130;-2.040;2024-03-23T06:20:02;1.90;;;0.90;;
61397;SDS011;47267;48.130;-2.040;2024-03-23T06:22:28;3.10;;;1.13;;
61397;SDS011;47267;48.130;-2.040;2024-03-23T06:24:53;2.08;;;1.00;;
61397;SDS011;47267;48.130;-2.040;2024-03-23T06:27:19;2.72;;;1.00;;
61397;SDS011;47267;48.130;-2.040;2024-03-23T06:29:45;3.33;;;1.10;;
61397;SDS011;47267;48.130;-2.040;2024-03-23T06:32:10;1.98;;;0.90;;
61397;SDS011;47267;48.130;-2.040;2024-03-23T06:34:36;2.03;;;0.80;;
61397;SDS011;47267;48.130;-2.040;2024-03-23T06:37:02;2.38;;;1.35;;
61397;SDS011;47267;48.130;-2.040;2024-03-23T06:39:28;2.25;;;0.88;;
61397;SDS011;47267;48.130;-2.040;2024-03-23T06:41:54;1.98;;;0.80;;
61397;SDS011;47267;48.130;-2.040;2024-03-23T06:44:20;2.17;;;0.77;;
61397;SDS011;47267;48.130;-2.040;2024-03-23T06:46:46;1.80;;;0.82;;
61397;SDS011;47267;48.130;-2.040;2024-03-23T06:49:13;2.72;;;0.90;;
61397;SDS011;47267;48.130;-2.040;2024-03-23T06:51:40;2.40;;;1.00;;
61397;SDS011;47267;48.130;-2.040;2024-03-23T06:54:06;2.33;;;1.00;;
61397;SDS011;47267;48.130;-2.040;2024-03-23T06:56:32;2.00;;;0.90;;
61397;SDS011;47267;48.130;-2.040;2024-03-23T06:58:59;2.60;;;1.02;;
61397;SDS011;47267;48.130;-2.040;2024-03-23T07:01:25;2.40;;;0.85;;
61397;SDS011;47267;48.130;-2.040;2024-03-23T07:03:50;3.35;;;1.13;;
61397;SDS011;47267;48.130;-2.040;2024-03-23T07:06:16;2.55;;;1.00;;
61397;SDS011;47267;48.130;-2.040;2024-03-23T07:08:42;3.08;;;1.00;;
61397;SDS011;47267;48.130;-2.040;2024-03-23T07:11:08;2.63;;;0.85;;
61397;SDS011;47267;48.130;-2.040;2024-03-23T07:13:33;3.25;;;0.77;;
61397;SDS011;47267;48.130;-2.040;2024-03-23T07:15:59;2.30;;;0.77;;
61397;SDS011;47267;48.130;-2.040;2024-03-23T07:18:25;3.00;;;0.95;;
61397;SDS011;47267;48.130;-2.040;2024-03-23T07:20:55;4.72;;;1.05;;
61397;SDS011;47267;48.130;-2.040;2024-03-23T07:23:21;1.10;;;0.70;;
61397;SDS011;47267;48.130;-2.040;2024-03-23T07:25:58;2.72;;;0.95;;
61397;SDS011;47267;48.130;-2.040;2024-03-23T07:28:24;2.08;;;1.02;;
61397;SDS011;47267;48.130;-2.040;2024-03-23T07:31:03;2.80;;;1.00;;
61397;SDS011;47267;48.130;-2.040;2024-03-23T07:33:29;1.95;;;0.70;;
61397;SDS011;47267;48.130;-2.040;2024-03-23T07:35:55;3.42;;;1.10;;
61397;SDS011;47267;48.130;-2.040;2024-03-23T07:38:21;2.30;;;0.70;;
61397;SDS011;47267;48.130;-2.040;2024-03-23T07:40:46;1.48;;;0.60;;
61397;SDS011;47267;48.130;-2.040;2024-03-23T07:43:14;2.47;;;0.80;;
61397;SDS011;47267;48.130;-2.040;2024-03-23T07:45:40;2.10;;;1.00;;
61397;SDS011;47267;48.130;-2.040;2024-03-23T07:48:06;2.03;;;0.70;;
61397;SDS011;47267;48.130;-2.040;2024-03-23T07:50:32;2.38;;;0.75;;
61397;SDS011;47267;48.130;-2.040;2024-03-23T07:52:57;2.78;;;0.88;;
61397;SDS011;47267;48.130;-2.040;2024-03-23T07:55:23;2.33;;;1.08;;
61397;SDS011;47267;48.130;-2.040;2024-03-23T07:57:50;2.33;;;0.80;;
61397;SDS011;47267;48.130;-2.040;2024-03-23T08:00:16;2.35;;;0.60;;
61397;SDS011;47267;48.130;-2.040;2024-03-23T08:02:42;2.55;;;0.88;;
61397;SDS011;47267;48.130;-2.040;2024-03-23T08:05:08;4.47;;;0.60;;
61397;SDS011;47267;48.130;-2.040;2024-03-23T08:07:34;2.58;;;0.80;;
61397;SDS011;47267;48.130;-2.040;2024-03-23T08:10:00;1.10;;;0.60;;
61397;SDS011;47267;48.130;-2.040;2024-03-23T08:12:28;3.50;;;0.60;;
61397;SDS011;47267;48.130;-2.040;2024-03-23T08:14:54;3.58;;;0.95;;
61397;SDS011;47267;48.130;-2.040;2024-03-23T08:17:19;2.15;;;0.70;;
61397;SDS011;47267;48.130;-2.040;2024-03-23T08:19:45;4.45;;;0.90;;
61397;SDS011;47267;48.130;-2.040;2024-03-23T08:22:11;1.85;;;0.60;;
61397;SDS011;47267;48.130;-2.040;2024-03-23T08:24:36;2.83;;;0.80;;
61397;SDS011;47267;48.130;-2.040;2024-03-23T08:27:02;3.42;;;0.82;;
61397;SDS011;47267;48.130;-2.040;2024-03-23T08:29:29;3.28;;;0.82;;
61397;SDS011;47267;48.130;-2.040;2024-03-23T08:31:55;3.58;;;1.00;;
61397;SDS011;47267;48.130;-2.040;2024-03-23T08:34:21;2.40;;;0.90;;
61397;SDS011;47267;48.130;-2.040;2024-03-23T08:36:46;2.63;;;0.70;;
61397;SDS011;47267;48.130;-2.040;2024-03-23T08:39:12;3.58;;;1.27;;
61397;SDS011;47267;48.130;-2.040;2024-03-23T08:41:38;3.28;;;0.73;;
61397;SDS011;47267;48.130;-2.040;2024-03-23T08:44:04;4.78;;;0.90;;
61397;SDS011;47267;48.130;-2.040;2024-03-23T08:46:29;3.47;;;1.02;;
61397;SDS011;47267;48.130;-2.040;2024-03-23T08:48:55;1.98;;;0.65;;
61397;SDS011;47267;48.130;-2.040;2024-03-23T08:51:21;3.42;;;1.20;;
61397;SDS011;47267;48.130;-2.040;2024-03-23T08:53:46;2.55;;;0.82;;
61397;SDS011;47267;48.130;-2.040;2024-03-23T08:56:12;2.60;;;0.90;;
61397;SDS011;47267;48.130;-2.040;2024-03-23T08:58:38;3.28;;;0.70;;
61397;SDS011;47267;48.130;-2.040;2024-03-23T09:01:09;2.15;;;0.70;;
61397;SDS011;47267;48.130;-2.040;2024-03-23T09:03:38;2.72;;;0.60;;
61397;SDS011;47267;48.130;-2.040;2024-03-23T09:06:10;3.60;;;1.05;;
61397;SDS011;47267;48.130;-2.040;2024-03-23T09:08:38;4.63;;;0.88;;
61397;SDS011;47267;48.130;-2.040;2024-03-23T09:11:06;4.38;;;1.00;;
61397;SDS011;47267;48.130;-2.040;2024-03-23T09:13:35;4.80;;;0.85;;
61397;SDS011;47267;48.130;-2.040;2024-03-23T09:16:02;4.18;;;1.13;;
61397;SDS011;47267;48.130;-2.040;2024-03-23T09:18:30;3.40;;;1.10;;
61397;SDS011;47267;48.130;-2.040;2024-03-23T09:20:57;4.95;;;1.02;;
61397;SDS011;47267;48.130;-2.040;2024-03-23T09:23:23;4.03;;;1.08;;
61397;SDS011;47267;48.130;-2.040;2024-03-23T09:25:49;2.47;;;0.70;;
61397;SDS011;47267;48.130;-2.040;2024-03-23T09:28:14;3.05;;;0.90;;
61397;SDS011;47267;48.130;-2.040;2024-03-23T09:30:40;2.85;;;0.80;;
61397;SDS011;47267;48.130;-2.040;2024-03-23T09:33:09;4.45;;;1.10;;
61397;SDS011;47267;48.130;-2.040;2024-03-23T09:35:42;2.28;;;0.73;;
61397;SDS011;47267;48.130;-2.040;2024-03-23T09:38:09;2.88;;;0.90;;
61397;SDS011;47267;48.130;-2.040;2024-03-23T09:40:41;3.70;;;1.05;;
61397;SDS011;47267;48.130;-2.040;2024-03-23T09:43:08;2.60;;;0.70;;
61397;SDS011;47267;48.130;-2.040;2024-03-23T09:45:35;3.33;;;1.00;;
61397;SDS011;47267;48.130;-2.040;2024-03-23T09:48:04;4.15;;;0.80;;
61397;SDS011;47267;48.130;-2.040;2024-03-23T09:50:31;4.25;;;1.00;;
61397;SDS011;47267;48.130;-2.040;2024-03-23T09:52:57;6.10;;;0.98;;
61397;SDS011;47267;48.130;-2.040;2024-03-23T09:55:23;1.95;;;0.90;;
61397;SDS011;47267;48.130;-2.040;2024-03-23T09:57:50;3.47;;;1.02;;
61397;SDS011;47267;48.130;-2.040;2024-03-23T10:00:15;4.57;;;0.80;;
61397;SDS011;47267;48.130;-2.040;2024-03-23T10:02:41;3.08;;;1.10;;
61397;SDS011;47267;48.130;-2.040;2024-03-23T10:05:22;2.67;;;0.73;;
61397;SDS011;47267;48.130;-2.040;2024-03-23T10:07:51;5.28;;;0.98;;
61397;SDS011;47267;48.130;-2.040;2024-03-23T10:10:17;4.57;;;1.00;;
61397;SDS011;47267;48.130;-2.040;2024-03-23T10:12:46;3.67;;;1.10;;
61397;SDS011;47267;48.130;-2.040;2024-03-23T10:15:24;4.40;;;1.27;;
61397;SDS011;47267;48.130;-2.040;2024-03-23T10:17:51;5.32;;;1.35;;
61397;SDS011;47267;48.130;-2.040;2024-03-23T10:20:20;2.88;;;0.93;;
61397;SDS011;47267;48.130;-2.040;2024-03-23T10:22:50;4.38;;;1.00;;
61397;SDS011;47267;48.130;-2.040;2024-03-23T10:25:22;5.60;;;1.10;;
61397;SDS011;47267;48.130;-2.040;2024-03-23T10:27:58;3.50;;;0.88;;
61397;SDS011;47267;48.130;-2.040;2024-03-23T10:30:24;2.20;;;0.77;;
61397;SDS011;47267;48.130;-2.040;2024-03-23T10:33:01;4.25;;;0.77;;
61397;SDS011;47267;48.130;-2.040;2024-03-23T10:35:36;4.65;;;0.85;;
61397;SDS011;47267;48.130;-2.040;2024-03-23T10:38:05;3.53;;;1.02;;
61397;SDS011;47267;48.130;-2.040;2024-03-23T10:40:33;2.47;;;1.05;;
61397;SDS011;47267;48.130;-2.040;2024-03-23T10:43:00;3.65;;;0.98;;
61397;SDS011;47267;48.130;-2.040;2024-03-23T10:45:27;4.75;;;0.88;;
61397;SDS011;47267;48.130;-2.040;2024-03-23T10:47:53;2.35;;;0.68;;
61397;SDS011;47267;48.130;-2.040;2024-03-23T10:50:19;2.53;;;0.88;;
61397;SDS011;47267;48.130;-2.040;2024-03-23T10:52:48;3.72;;;0.80;;
61397;SDS011;47267;48.130;-2.040;2024-03-23T10:55:17;3.05;;;1.00;;
61397;SDS011;47267;48.130;-2.040;2024-03-23T10:57:45;4.07;;;1.27;;
61397;SDS011;47267;48.130;-2.040;2024-03-23T11:00:16;4.20;;;1.30;;
61397;SDS011;47267;48.130;-2.040;2024-03-23T11:02:42;2.97;;;1.00;;
61397;SDS011;47267;48.130;-2.040;2024-03-23T11:05:41;2.45;;;0.80;;
61397;SDS011;47267;48.130;-2.040;2024-03-23T11:08:00;2.35;;;1.00;;
61397;SDS011;47267;48.130;-2.040;2024-03-23T11:10:27;4.40;;;1.08;;
61397;SDS011;47267;48.130;-2.040;2024-03-23T11:12:55;2.53;;;0.82;;
61397;SDS011;47267;48.130;-2.040;2024-03-23T11:15:39;4.28;;;1.23;;
61397;SDS011;47267;48.130;-2.040;2024-03-23T11:18:06;5.00;;;1.13;;
61397;SDS011;47267;48.130;-2.040;2024-03-23T11:20:37;4.10;;;1.17;;
61397;SDS011;47267;48.130;-2.040;2024-03-23T11:23:04;4.78;;;1.23;;
61397;SDS011;47267;48.130;-2.040;2024-03-23T11:25:30;4.57;;;1.30;;
61397;SDS011;47267;48.130;-2.040;2024-03-23T11:27:56;3.38;;;1.52;;
61397;SDS011;47267;48.130;-2.040;2024-03-23T11:32:50;4.20;;;1.38;;
61397;SDS011;47267;48.130;-2.040;2024-03-23T11:35:32;5.70;;;1.45;;
61397;SDS011;47267;48.130;-2.040;2024-03-23T11:40:28;8.98;;;2.25;;
61397;SDS011;47267;48.130;-2.040;2024-03-23T11:43:00;7.93;;;2.17;;
61397;SDS011;47267;48.130;-2.040;2024-03-23T11:45:28;10.45;;;2.38;;
61397;SDS011;47267;48.130;-2.040;2024-03-23T11:48:10;3.72;;;1.75;;
61397;SDS011;47267;48.130;-2.040;2024-03-23T11:50:38;7.95;;;2.15;;
61397;SDS011;47267;48.130;-2.040;2024-03-23T11:55:47;8.00;;;1.73;;
61397;SDS011;47267;48.130;-2.040;2024-03-23T11:58:20;4.93;;;1.50;;
61397;SDS011;47267;48.130;-2.040;2024-03-23T12:00:50;7.80;;;2.20;;
61397;SDS011;47267;48.130;-2.040;2024-03-23T12:03:18;6.72;;;1.85;;
61397;SDS011;47267;48.130;-2.040;2024-03-23T12:05:50;7.78;;;2.42;;
61397;SDS011;47267;48.130;-2.040;2024-03-23T12:08:25;6.78;;;1.70;;
61397;SDS011;47267;48.130;-2.040;2024-03-23T12:11:09;8.13;;;1.70;;
61397;SDS011;47267;48.130;-2.040;2024-03-23T12:13:39;8.30;;;2.30;;
61397;SDS011;47267;48.130;-2.040;2024-03-23T12:18:47;7.57;;;1.90;;
61397;SDS011;47267;48.130;-2.040;2024-03-23T12:21:14;8.02;;;2.10;;
61397;SDS011;47267;48.130;-2.040;2024-03-23T12:23:43;6.93;;;2.00;;
61397;SDS011;47267;48.130;-2.040;2024-03-23T12:26:10;6.90;;;1.70;;
61397;SDS011;47267;48.130;-2.040;2024-03-23T12:28:37;8.63;;;1.80;;
61397;SDS011;47267;48.130;-2.040;2024-03-23T12:31:03;7.82;;;1.65;;
61397;SDS011;47267;48.130;-2.040;2024-03-23T12:33:29;6.53;;;1.63;;
61397;SDS011;47267;48.130;-2.040;2024-03-23T12:35:55;5.47;;;1.40;;
61397;SDS011;47267;48.130;-2.040;2024-03-23T12:38:21;8.68;;;1.90;;
61397;SDS011;47267;48.130;-2.040;2024-03-23T12:40:49;5.78;;;1.50;;
61397;SDS011;47267;48.130;-2.040;2024-03-23T12:43:16;4.90;;;1.30;;
61397;SDS011;47267;48.130;-2.040;2024-03-23T12:45:48;4.57;;;1.88;;
61397;SDS011;47267;48.130;-2.040;2024-03-23T12:48:14;4.97;;;1.50;;
61397;SDS011;47267;48.130;-2.040;2024-03-23T12:50:41;5.35;;;1.67;;
61397;SDS011;47267;48.130;-2.040;2024-03-23T12:53:06;5.78;;;1.50;;
61397;SDS011;47267;48.130;-2.040;2024-03-23T12:55:34;6.70;;;1.35;;
61397;SDS011;47267;48.130;-2.040;2024-03-23T12:58:00;5.18;;;1.38;;
61397;SDS011;47267;48.130;-2.040;2024-03-23T13:00:26;6.35;;;1.80;;
61397;SDS011;47267;48.130;-2.040;2024-03-23T13:02:52;5.15;;;1.45;;
61397;SDS011;47267;48.130;-2.040;2024-03-23T13:05:17;15.05;;;1.70;;
61397;SDS011;47267;48.130;-2.040;2024-03-23T13:07:43;4.25;;;1.38;;
61397;SDS011;47267;48.130;-2.040;2024-03-23T13:10:09;5.95;;;1.45;;
61397;SDS011;47267;48.130;-2.040;2024-03-23T13:12:35;5.55;;;1.52;;
61397;SDS011;47267;48.130;-2.040;2024-03-23T13:15:01;4.43;;;1.23;;
61397;SDS011;47267;48.130;-2.040;2024-03-23T13:17:27;4.57;;;1.42;;
61397;SDS011;47267;48.130;-2.040;2024-03-23T13:19:53;3.83;;;1.38;;
61397;SDS011;47267;48.130;-2.040;2024-03-23T13:22:20;4.75;;;1.42;;
61397;SDS011;47267;48.130;-2.040;2024-03-23T13:24:46;3.78;;;1.00;;
61397;SDS011;47267;48.130;-2.040;2024-03-23T13:27:11;3.58;;;1.10;;
61397;SDS011;47267;48.130;-2.040;2024-03-23T13:29:37;3.92;;;1.23;;
61397;SDS011;47267;48.130;-2.040;2024-03-23T13:32:04;7.70;;;1.40;;
61397;SDS011;47267;48.130;-2.040;2024-03-23T13:34:30;4.85;;;1.35;;
61397;SDS011;47267;48.130;-2.040;2024-03-23T13:36:55;3.85;;;1.10;;
61397;SDS011;47267;48.130;-2.040;2024-03-23T13:39:23;5.32;;;1.30;;
61397;SDS011;47267;48.130;-2.040;2024-03-23T13:41:48;2.40;;;0.85;;
61397;SDS011;47267;48.130;-2.040;2024-03-23T13:44:14;3.42;;;1.30;;
61397;SDS011;47267;48.130;-2.040;2024-03-23T13:46:41;3.95;;;1.08;;
61397;SDS011;47267;48.130;-2.040;2024-03-23T13:51:49;3.80;;;1.38;;
61397;SDS011;47267;48.130;-2.040;2024-03-23T13:54:15;4.32;;;1.27;;
61397;SDS011;47267;48.130;-2.040;2024-03-23T13:56:41;2.65;;;0.95;;
61397;SDS011;47267;48.130;-2.040;2024-03-23T13:59:07;3.47;;;1.10;;
61397;SDS011;47267;48.130;-2.040;2024-03-23T14:01:32;4.10;;;1.00;;
61397;SDS011;47267;48.130;-2.040;2024-03-23T14:03:58;4.50;;;1.50;;
61397;SDS011;47267;48.130;-2.040;2024-03-23T14:06:24;4.40;;;1.38;;
61397;SDS011;47267;48.130;-2.040;2024-03-23T14:08:49;5.00;;;1.27;;
61397;SDS011;47267;48.130;-2.040;2024-03-23T14:11:17;3.00;;;0.98;;
61397;SDS011;47267;48.130;-2.040;2024-03-23T14:13:43;3.08;;;1.25;;
61397;SDS011;47267;48.130;-2.040;2024-03-23T14:16:10;3.00;;;0.90;;
61397;SDS011;47267;48.130;-2.040;2024-03-23T14:18:36;2.95;;;0.90;;
61397;SDS011;47267;48.130;-2.040;2024-03-23T14:21:01;3.92;;;1.00;;
61397;SDS011;47267;48.130;-2.040;2024-03-23T14:23:28;2.78;;;0.90;;
61397;SDS011;47267;48.130;-2.040;2024-03-23T14:25:55;4.57;;;1.02;;
61397;SDS011;47267;48.130;-2.040;2024-03-23T14:28:21;3.88;;;1.13;;
61397;SDS011;47267;48.130;-2.040;2024-03-23T14:30:48;3.50;;;1.10;;
61397;SDS011;47267;48.130;-2.040;2024-03-23T14:33:17;3.28;;;1.10;;
61397;SDS011;47267;48.130;-2.040;2024-03-23T14:35:56;2.78;;;0.80;;
61397;SDS011;47267;48.130;-2.040;2024-03-23T14:38:22;5.25;;;1.10;;
61397;SDS011;47267;48.130;-2.040;2024-03-23T14:40:48;3.10;;;0.80;;
61397;SDS011;47267;48.130;-2.040;2024-03-23T14:43:14;4.35;;;1.15;;
61397;SDS011;47267;48.130;-2.040;2024-03-23T14:48:35;3.15;;;0.68;;
61397;SDS011;47267;48.130;-2.040;2024-03-23T14:51:01;4.25;;;0.98;;
61397;SDS011;47267;48.130;-2.040;2024-03-23T14:53:31;2.42;;;0.70;;
61397;SDS011;47267;48.130;-2.040;2024-03-23T14:55:57;3.05;;;0.93;;
61397;SDS011;47267;48.130;-2.040;2024-03-23T14:58:24;2.60;;;0.85;;
61397;SDS011;47267;48.130;-2.040;2024-03-23T15:00:51;5.43;;;0.93;;
61397;SDS011;47267;48.130;-2.040;2024-03-23T15:03:17;2.75;;;0.90;;
61397;SDS011;47267;48.130;-2.040;2024-03-23T15:05:55;1.50;;;0.77;;
61397;SDS011;47267;48.130;-2.040;2024-03-23T15:08:22;1.88;;;0.68;;
61397;SDS011;47267;48.130;-2.040;2024-03-23T15:10:48;3.13;;;0.68;;
61397;SDS011;47267;48.130;-2.040;2024-03-23T15:13:14;3.15;;;1.10;;
61397;SDS011;47267;48.130;-2.040;2024-03-23T15:15:43;2.22;;;0.75;;
61397;SDS011;47267;48.130;-2.040;2024-03-23T15:18:12;3.28;;;0.82;;
61397;SDS011;47267;48.130;-2.040;2024-03-23T15:20:40;3.05;;;0.90;;
61397;SDS011;47267;48.130;-2.040;2024-03-23T15:23:06;2.25;;;0.70;;
61397;SDS011;47267;48.130;-2.040;2024-03-23T15:25:31;1.60;;;0.68;;
61397;SDS011;47267;48.130;-2.040;2024-03-23T15:27:57;2.22;;;0.80;;
61397;SDS011;47267;48.130;-2.040;2024-03-23T15:30:24;2.85;;;0.73;;
61397;SDS011;47267;48.130;-2.040;2024-03-23T15:32:50;1.80;;;0.60;;
61397;SDS011;47267;48.130;-2.040;2024-03-23T15:35:16;2.03;;;0.70;;
61397;SDS011;47267;48.130;-2.040;2024-03-23T15:37:41;2.58;;;0.90;;
61397;SDS011;47267;48.130;-2.040;2024-03-23T15:40:08;3.00;;;0.70;;
61397;SDS011;47267;48.130;-2.040;2024-03-23T15:42:35;4.30;;;1.30;;